sensor_id;sensor_type;location;lat;lon;timestamp;pressure;altitude;pressure_sealevel;temperature;humidity
47260;BME280;32999;52.412;4.890;2023-03-18T00:02:55;100739.38;;;12.97;100.00
47260;BME280;32999;52.412;4.890;2023-03-18T00:07:58;100735.03;;;12.95;100.00
47260;BME280;32999;52.412;4.890;2023-03-18T00:13:00;100747.63;;;12.95;100.00
47260;BME280;32999;52.412;4.890;2023-03-18T00:18:03;100747.19;;;12.91;100.00
47260;BME280;32999;52.412;4.890;2023-03-18T00:23:07;100756.69;;;12.94;100.00
47260;BME280;32999;52.412;4.890;2023-03-18T00:28:08;100747.22;;;12.98;100.00
47260;BME280;32999;52.412;4.890;2023-03-18T00:33:10;100750.91;;;12.90;100.00
47260;BME280;32999;52.412;4.890;2023-03-18T00:38:13;100752.97;;;12.82;100.00
47260;BME280;32999;52.412;4.890;2023-03-18T00:43:20;100760.16;;;12.75;100.00
47260;BME280;32999;52.412;4.890;2023-03-18T00:48:23;100757.03;;;12.58;100.00
47260;BME280;32999;52.412;4.890;2023-03-18T00:53:26;100764.03;;;12.66;100.00
47260;BME280;32999;52.412;4.890;2023-03-18T00:58:27;100758.66;;;12.52;100.00
47260;BME280;32999;52.412;4.890;2023-03-18T01:03:29;100771.00;;;12.47;100.00
47260;BME280;32999;52.412;4.890;2023-03-18T01:08:32;100761.97;;;12.54;100.00
47260;BME280;32999;52.412;4.890;2023-03-18T01:13:33;100757.81;;;12.52;100.00
47260;BME280;32999;52.412;4.890;2023-03-18T01:18:35;100757.03;;;12.65;100.00
47260;BME280;32999;52.412;4.890;2023-03-18T01:23:39;100765.28;;;12.63;100.00
47260;BME280;32999;52.412;4.890;2023-03-18T01:28:41;100770.03;;;12.61;100.00
47260;BME280;32999;52.412;4.890;2023-03-18T01:33:42;100767.34;;;12.61;100.00
47260;BME280;32999;52.412;4.890;2023-03-18T01:38:45;100764.03;;;12.59;100.00
47260;BME280;32999;52.412;4.890;2023-03-18T01:43:47;100756.41;;;12.56;100.00
47260;BME280;32999;52.412;4.890;2023-03-18T01:48:48;100753.28;;;12.52;100.00
47260;BME280;32999;52.412;4.890;2023-03-18T01:53:52;100753.66;;;12.43;100.00
47260;BME280;32999;52.412;4.890;2023-03-18T01:58:55;100753.22;;;12.33;100.00
47260;BME280;32999;52.412;4.890;2023-03-18T02:03:57;100757.72;;;12.25;100.00
47260;BME280;32999;52.412;4.890;2023-03-18T02:09:00;100759.53;;;12.18;100.00
47260;BME280;32999;52.412;4.890;2023-03-18T02:14:03;100757.25;;;12.15;100.00
47260;BME280;32999;52.412;4.890;2023-03-18T02:19:08;100761.56;;;12.10;100.00
47260;BME280;32999;52.412;4.890;2023-03-18T02:24:18;100768.53;;;12.04;100.00
47260;BME280;32999;52.412;4.890;2023-03-18T02:29:23;100768.53;;;12.04;100.00
47260;BME280;32999;52.412;4.890;2023-03-18T02:34:26;100777.59;;;12.03;100.00
47260;BME280;32999;52.412;4.890;2023-03-18T02:39:28;100774.53;;;12.06;100.00
47260;BME280;32999;52.412;4.890;2023-03-18T02:44:32;100778.88;;;12.14;100.00
47260;BME280;32999;52.412;4.890;2023-03-18T02:49:35;100796.88;;;12.26;100.00
47260;BME280;32999;52.412;4.890;2023-03-18T02:54:36;100808.47;;;12.40;100.00
47260;BME280;32999;52.412;4.890;2023-03-18T02:59:39;100802.13;;;12.48;100.00
47260;BME280;32999;52.412;4.890;2023-03-18T03:04:41;100799.94;;;12.58;100.00
47260;BME280;32999;52.412;4.890;2023-03-18T03:09:43;100793.75;;;12.64;100.00
47260;BME280;32999;52.412;4.890;2023-03-18T03:14:46;100787.53;;;12.64;100.00
47260;BME280;32999;52.412;4.890;2023-03-18T03:19:47;100796.66;;;12.69;100.00
47260;BME280;32999;52.412;4.890;2023-03-18T03:24:48;100795.03;;;12.75;100.00
47260;BME280;32999;52.412;4.890;2023-03-18T03:29:51;100794.03;;;12.82;100.00
47260;BME280;32999;52.412;4.890;2023-03-18T03:34:54;100789.47;;;12.89;100.00
47260;BME280;32999;52.412;4.890;2023-03-18T03:39:55;100795.44;;;12.78;100.00
47260;BME280;32999;52.412;4.890;2023-03-18T03:45:00;100797.53;;;12.83;100.00
47260;BME280;32999;52.412;4.890;2023-03-18T03:50:02;100799.00;;;12.85;100.00
47260;BME280;32999;52.412;4.890;2023-03-18T03:55:05;100796.50;;;12.90;100.00
47260;BME280;32999;52.412;4.890;2023-03-18T04:00:10;100807.22;;;12.90;100.00
47260;BME280;32999;52.412;4.890;2023-03-18T04:05:13;100803.28;;;12.80;100.00
47260;BME280;32999;52.412;4.890;2023-03-18T04:10:16;100807.25;;;12.97;100.00
47260;BME280;32999;52.412;4.890;2023-03-18T04:15:20;100798.19;;;13.05;100.00
47260;BME280;32999;52.412;4.890;2023-03-18T04:20:22;100804.63;;;13.17;100.00
47260;BME280;32999;52.412;4.890;2023-03-18T04:25:23;100802.31;;;13.14;100.00
47260;BME280;32999;52.412;4.890;2023-03-18T04:30:26;100809.53;;;13.00;100.00
47260;BME280;32999;52.412;4.890;2023-03-18T04:35:29;100815.88;;;12.79;100.00
47260;BME280;32999;52.412;4.890;2023-03-18T04:40:30;100835.09;;;12.83;100.00
47260;BME280;32999;52.412;4.890;2023-03-18T04:45:33;100841.25;;;12.77;100.00
47260;BME280;32999;52.412;4.890;2023-03-18T04:50:35;100848.81;;;12.60;100.00
47260;BME280;32999;52.412;4.890;2023-03-18T04:55:36;100864.66;;;12.20;100.00
47260;BME280;32999;52.412;4.890;2023-03-18T05:00:40;100871.44;;;12.16;100.00
47260;BME280;32999;52.412;4.890;2023-03-18T05:05:42;100869.03;;;12.28;100.00
47260;BME280;32999;52.412;4.890;2023-03-18T05:10:44;100866.75;;;12.25;100.00
47260;BME280;32999;52.412;4.890;2023-03-18T05:15:48;100884.34;;;12.34;100.00
47260;BME280;32999;52.412;4.890;2023-03-18T05:20:49;100885.38;;;12.33;100.00
47260;BME280;32999;52.412;4.890;2023-03-18T05:25:51;100888.25;;;12.38;100.00
47260;BME280;32999;52.412;4.890;2023-03-18T05:30:54;100891.19;;;12.43;100.00
47260;BME280;32999;52.412;4.890;2023-03-18T05:35:55;100899.91;;;12.52;100.00
47260;BME280;32999;52.412;4.890;2023-03-18T05:40:57;100900.03;;;12.37;100.00
47260;BME280;32999;52.412;4.890;2023-03-18T05:46:00;100917.66;;;12.25;100.00
47260;BME280;32999;52.412;4.890;2023-03-18T05:51:01;100919.38;;;12.33;100.00
47260;BME280;32999;52.412;4.890;2023-03-18T05:56:04;100926.84;;;12.37;100.00
47260;BME280;32999;52.412;4.890;2023-03-18T06:01:09;100898.72;;;12.26;100.00
47260;BME280;32999;52.412;4.890;2023-03-18T06:06:13;100938.06;;;12.54;100.00
47260;BME280;32999;52.412;4.890;2023-03-18T06:11:14;100930.56;;;12.43;100.00
47260;BME280;32999;52.412;4.890;2023-03-18T06:16:17;100939.63;;;12.42;100.00
47260;BME280;32999;52.412;4.890;2023-03-18T06:21:18;100950.72;;;12.39;100.00
47260;BME280;32999;52.412;4.890;2023-03-18T06:26:20;100959.03;;;12.44;100.00
47260;BME280;32999;52.412;4.890;2023-03-18T06:31:23;100955.72;;;12.42;100.00
47260;BME280;32999;52.412;4.890;2023-03-18T06:36:25;100958.38;;;12.42;100.00
47260;BME280;32999;52.412;4.890;2023-03-18T06:41:26;100950.44;;;12.55;100.00
47260;BME280;32999;52.412;4.890;2023-03-18T06:46:30;100975.28;;;12.70;100.00
47260;BME280;32999;52.412;4.890;2023-03-18T06:51:32;100980.66;;;12.70;100.00
47260;BME280;32999;52.412;4.890;2023-03-18T06:56:33;100981.44;;;12.64;100.00
47260;BME280;32999;52.412;4.890;2023-03-18T07:01:39;100991.81;;;12.46;100.00
47260;BME280;32999;52.412;4.890;2023-03-18T07:06:40;100989.25;;;12.59;100.00
47260;BME280;32999;52.412;4.890;2023-03-18T07:11:42;100990.09;;;12.66;100.00
47260;BME280;32999;52.412;4.890;2023-03-18T07:16:46;100997.75;;;12.69;100.00
47260;BME280;32999;52.412;4.890;2023-03-18T07:21:48;100992.72;;;12.87;100.00
47260;BME280;32999;52.412;4.890;2023-03-18T07:26:49;101008.13;;;13.13;100.00
47260;BME280;32999;52.412;4.890;2023-03-18T07:31:52;101012.03;;;13.45;100.00
47260;BME280;32999;52.412;4.890;2023-03-18T07:36:54;101020.59;;;13.21;100.00
47260;BME280;32999;52.412;4.890;2023-03-18T07:41:55;101020.72;;;13.47;100.00
47260;BME280;32999;52.412;4.890;2023-03-18T07:46:58;101022.44;;;13.68;100.00
47260;BME280;32999;52.412;4.890;2023-03-18T07:52:00;101024.88;;;13.56;100.00
47260;BME280;32999;52.412;4.890;2023-03-18T07:57:03;101016.44;;;13.73;100.00
47260;BME280;32999;52.412;4.890;2023-03-18T08:02:09;101012.63;;;14.35;100.00
47260;BME280;32999;52.412;4.890;2023-03-18T08:07:11;101014.28;;;14.49;100.00
47260;BME280;32999;52.412;4.890;2023-03-18T08:12:13;101001.38;;;14.97;100.00
47260;BME280;32999;52.412;4.890;2023-03-18T08:17:16;101000.78;;;14.88;100.00
47260;BME280;32999;52.412;4.890;2023-03-18T08:22:18;100998.16;;;14.42;100.00
47260;BME280;32999;52.412;4.890;2023-03-18T08:27:19;101010.13;;;14.66;100.00
47260;BME280;32999;52.412;4.890;2023-03-18T08:32:22;100999.34;;;15.57;100.00
47260;BME280;32999;52.412;4.890;2023-03-18T08:37:24;101003.75;;;15.83;100.00
47260;BME280;32999;52.412;4.890;2023-03-18T08:42:26;100997.91;;;16.60;100.00
47260;BME280;32999;52.412;4.890;2023-03-18T08:47:29;100997.03;;;17.10;100.00
47260;BME280;32999;52.412;4.890;2023-03-18T08:52:31;100989.22;;;17.98;100.00
47260;BME280;32999;52.412;4.890;2023-03-18T08:57:32;100986.47;;;18.86;100.00
47260;BME280;32999;52.412;4.890;2023-03-18T09:02:35;100991.44;;;19.41;100.00
47260;BME280;32999;52.412;4.890;2023-03-18T09:07:37;100994.28;;;19.34;100.00
47260;BME280;32999;52.412;4.890;2023-03-18T09:12:39;100993.53;;;20.24;100.00
47260;BME280;32999;52.412;4.890;2023-03-18T09:17:42;100980.06;;;21.72;100.00
47260;BME280;32999;52.412;4.890;2023-03-18T09:22:44;100981.63;;;21.95;100.00
47260;BME280;32999;52.412;4.890;2023-03-18T09:27:46;100983.31;;;22.65;100.00
47260;BME280;32999;52.412;4.890;2023-03-18T09:32:49;100986.38;;;23.26;100.00
47260;BME280;32999;52.412;4.890;2023-03-18T09:37:51;100993.28;;;23.54;100.00
47260;BME280;32999;52.412;4.890;2023-03-18T09:42:54;100996.97;;;24.35;100.00
47260;BME280;32999;52.412;4.890;2023-03-18T09:48:03;101001.03;;;23.87;100.00
47260;BME280;32999;52.412;4.890;2023-03-18T09:53:14;101002.44;;;24.30;100.00
47260;BME280;32999;52.412;4.890;2023-03-18T09:58:17;101002.97;;;24.27;93.78
47260;BME280;32999;52.412;4.890;2023-03-18T10:03:26;101016.84;;;22.33;100.00
47260;BME280;32999;52.412;4.890;2023-03-18T10:08:34;101019.28;;;20.55;100.00
47260;BME280;32999;52.412;4.890;2023-03-18T10:13:40;101033.75;;;19.42;100.00
47260;BME280;32999;52.412;4.890;2023-03-18T10:18:46;101032.91;;;19.42;100.00
47260;BME280;32999;52.412;4.890;2023-03-18T10:23:48;101028.16;;;19.60;100.00
47260;BME280;32999;52.412;4.890;2023-03-18T10:29:02;101017.38;;;21.55;100.00
47260;BME280;32999;52.412;4.890;2023-03-18T10:34:10;101005.28;;;22.53;100.00
47260;BME280;32999;52.412;4.890;2023-03-18T10:39:16;101015.78;;;23.91;98.35
47260;BME280;32999;52.412;4.890;2023-03-18T10:44:19;101011.66;;;24.90;89.37
47260;BME280;32999;52.412;4.890;2023-03-18T10:49:24;101014.44;;;23.99;84.76
47260;BME280;32999;52.412;4.890;2023-03-18T10:54:28;101019.72;;;22.54;100.00
47260;BME280;32999;52.412;4.890;2023-03-18T10:59:32;101021.69;;;21.29;100.00
47260;BME280;32999;52.412;4.890;2023-03-18T11:04:37;101009.41;;;20.66;100.00
47260;BME280;32999;52.412;4.890;2023-03-18T11:09:41;100984.91;;;20.27;100.00
47260;BME280;32999;52.412;4.890;2023-03-18T11:14:45;100999.63;;;20.48;100.00
47260;BME280;32999;52.412;4.890;2023-03-18T11:19:49;101007.97;;;20.13;100.00
47260;BME280;32999;52.412;4.890;2023-03-18T11:25:00;101023.53;;;20.34;100.00
47260;BME280;32999;52.412;4.890;2023-03-18T11:30:03;101020.19;;;21.87;100.00
47260;BME280;32999;52.412;4.890;2023-03-18T11:35:17;101010.75;;;20.85;100.00
47260;BME280;32999;52.412;4.890;2023-03-18T11:40:23;101029.69;;;20.13;100.00
47260;BME280;32999;52.412;4.890;2023-03-18T11:45:44;101013.25;;;20.36;100.00
47260;BME280;32999;52.412;4.890;2023-03-18T11:50:56;101030.91;;;19.37;100.00
47260;BME280;32999;52.412;4.890;2023-03-18T11:56:00;101019.69;;;18.93;100.00
47260;BME280;32999;52.412;4.890;2023-03-18T12:01:07;101015.50;;;18.32;100.00
47260;BME280;32999;52.412;4.890;2023-03-18T12:06:16;101010.63;;;17.99;100.00
47260;BME280;32999;52.412;4.890;2023-03-18T12:11:21;101002.16;;;17.96;100.00
47260;BME280;32999;52.412;4.890;2023-03-18T12:16:32;101005.59;;;17.25;100.00
47260;BME280;32999;52.412;4.890;2023-03-18T12:21:44;101017.56;;;17.65;100.00
47260;BME280;32999;52.412;4.890;2023-03-18T12:26:49;101017.47;;;17.72;100.00
47260;BME280;32999;52.412;4.890;2023-03-18T12:31:59;101017.41;;;17.79;100.00
47260;BME280;32999;52.412;4.890;2023-03-18T12:37:07;101013.75;;;17.37;100.00
47260;BME280;32999;52.412;4.890;2023-03-18T12:42:15;101010.38;;;17.41;100.00
47260;BME280;32999;52.412;4.890;2023-03-18T12:47:18;101005.84;;;17.35;100.00
47260;BME280;32999;52.412;4.890;2023-03-18T12:52:24;101003.00;;;17.48;100.00
47260;BME280;32999;52.412;4.890;2023-03-18T12:57:35;100997.59;;;17.66;100.00
47260;BME280;32999;52.412;4.890;2023-03-18T13:02:39;100989.31;;;17.61;100.00
47260;BME280;32999;52.412;4.890;2023-03-18T13:07:45;100994.00;;;17.84;100.00
47260;BME280;32999;52.412;4.890;2023-03-18T13:12:50;100987.56;;;18.74;100.00
47260;BME280;32999;52.412;4.890;2023-03-18T13:17:53;100992.38;;;18.60;100.00
47260;BME280;32999;52.412;4.890;2023-03-18T13:23:07;100996.44;;;18.04;100.00
47260;BME280;32999;52.412;4.890;2023-03-18T13:28:27;100999.16;;;17.74;100.00
47260;BME280;32999;52.412;4.890;2023-03-18T13:33:37;101000.06;;;17.98;100.00
47260;BME280;32999;52.412;4.890;2023-03-18T13:38:54;101002.66;;;18.05;100.00
47260;BME280;32999;52.412;4.890;2023-03-18T13:44:02;101002.16;;;17.96;100.00
47260;BME280;32999;52.412;4.890;2023-03-18T13:49:11;101001.09;;;18.74;100.00
47260;BME280;32999;52.412;4.890;2023-03-18T13:54:19;101003.63;;;18.22;100.00
47260;BME280;32999;52.412;4.890;2023-03-18T13:59:41;101001.00;;;18.68;100.00
47260;BME280;32999;52.412;4.890;2023-03-18T14:04:43;100995.56;;;18.92;100.00
47260;BME280;32999;52.412;4.890;2023-03-18T14:09:47;100988.22;;;18.22;100.00
47260;BME280;32999;52.412;4.890;2023-03-18T14:14:54;100979.47;;;17.97;100.00
47260;BME280;32999;52.412;4.890;2023-03-18T14:19:56;100974.97;;;17.79;100.00
47260;BME280;32999;52.412;4.890;2023-03-18T14:25:10;100959.94;;;17.35;100.00
47260;BME280;32999;52.412;4.890;2023-03-18T14:35:46;100955.09;;;16.71;100.00
47260;BME280;32999;52.412;4.890;2023-03-18T14:40:49;100953.06;;;16.66;100.00
47260;BME280;32999;52.412;4.890;2023-03-18T14:45:55;100946.03;;;16.65;100.00
47260;BME280;32999;52.412;4.890;2023-03-18T14:50:58;100949.34;;;17.04;100.00
47260;BME280;32999;52.412;4.890;2023-03-18T14:56:03;100937.59;;;17.10;100.00
47260;BME280;32999;52.412;4.890;2023-03-18T15:01:05;100934.16;;;17.21;100.00
47260;BME280;32999;52.412;4.890;2023-03-18T15:06:11;100927.00;;;16.96;100.00
47260;BME280;32999;52.412;4.890;2023-03-18T15:11:18;100933.97;;;16.67;100.00
47260;BME280;32999;52.412;4.890;2023-03-18T15:16:22;100928.50;;;16.74;100.00
47260;BME280;32999;52.412;4.890;2023-03-18T15:21:25;100930.09;;;17.30;100.00
47260;BME280;32999;52.412;4.890;2023-03-18T15:26:29;100924.72;;;16.93;100.00
47260;BME280;32999;52.412;4.890;2023-03-18T15:31:38;100917.81;;;17.16;100.00
47260;BME280;32999;52.412;4.890;2023-03-18T15:36:40;100925.63;;;17.06;100.00
47260;BME280;32999;52.412;4.890;2023-03-18T15:41:43;100919.78;;;16.90;100.00
47260;BME280;32999;52.412;4.890;2023-03-18T16:45:42;100904.28;;;15.75;100.00
47260;BME280;32999;52.412;4.890;2023-03-18T16:50:44;100909.28;;;15.96;100.00
47260;BME280;32999;52.412;4.890;2023-03-18T16:55:48;100905.44;;;16.10;100.00
47260;BME280;32999;52.412;4.890;2023-03-18T17:00:52;100909.63;;;16.06;100.00
47260;BME280;32999;52.412;4.890;2023-03-18T17:05:54;100906.38;;;15.73;100.00
47260;BME280;32999;52.412;4.890;2023-03-18T17:10:57;100906.09;;;15.56;100.00
47260;BME280;32999;52.412;4.890;2023-03-18T17:16:02;100907.28;;;15.60;100.00
47260;BME280;32999;52.412;4.890;2023-03-18T17:21:04;100923.09;;;15.43;100.00
47260;BME280;32999;52.412;4.890;2023-03-18T17:26:05;100920.84;;;15.40;100.00
47260;BME280;32999;52.412;4.890;2023-03-18T17:31:10;100921.25;;;15.44;100.00
47260;BME280;32999;52.412;4.890;2023-03-18T17:36:12;100915.00;;;15.56;100.00
47260;BME280;32999;52.412;4.890;2023-03-18T17:41:14;100913.50;;;15.60;100.00
47260;BME280;32999;52.412;4.890;2023-03-18T17:46:17;100925.63;;;15.38;100.00
47260;BME280;32999;52.412;4.890;2023-03-18T17:51:19;100921.25;;;15.44;100.00
47260;BME280;32999;52.412;4.890;2023-03-18T17:56:22;100917.47;;;15.51;100.00
47260;BME280;32999;52.412;4.890;2023-03-18T18:01:26;100915.59;;;15.52;100.00
47260;BME280;32999;52.412;4.890;2023-03-18T18:06:29;100926.63;;;15.44;100.00
47260;BME280;32999;52.412;4.890;2023-03-18T18:11:33;100931.97;;;15.57;100.00
47260;BME280;32999;52.412;4.890;2023-03-18T18:16:38;100933.03;;;15.49;100.00
47260;BME280;32999;52.412;4.890;2023-03-18T18:21:39;100926.59;;;15.50;100.00
47260;BME280;32999;52.412;4.890;2023-03-18T18:26:42;100927.03;;;15.47;100.00
47260;BME280;32999;52.412;4.890;2023-03-18T18:31:45;100935.97;;;15.41;100.00
47260;BME280;32999;52.412;4.890;2023-03-18T18:36:47;100929.25;;;15.19;100.00
47260;BME280;32999;52.412;4.890;2023-03-18T18:41:49;100917.66;;;15.18;100.00
47260;BME280;32999;52.412;4.890;2023-03-18T18:46:53;100919.69;;;15.23;100.00
47260;BME280;32999;52.412;4.890;2023-03-18T18:51:55;100922.16;;;15.31;100.00
47260;BME280;32999;52.412;4.890;2023-03-18T18:56:56;100925.19;;;15.41;100.00
47260;BME280;32999;52.412;4.890;2023-03-18T19:01:59;100929.97;;;15.39;100.00
47260;BME280;32999;52.412;4.890;2023-03-18T19:07:02;100927.25;;;15.39;100.00
47260;BME280;32999;52.412;4.890;2023-03-18T19:12:08;100929.47;;;15.55;100.00
47260;BME280;32999;52.412;4.890;2023-03-18T19:17:14;100936.81;;;15.35;100.00
47260;BME280;32999;52.412;4.890;2023-03-18T19:22:16;100948.59;;;15.41;100.00
47260;BME280;32999;52.412;4.890;2023-03-18T19:27:19;100955.78;;;15.60;100.00
47260;BME280;32999;52.412;4.890;2023-03-18T19:32:23;100948.44;;;15.74;100.00
47260;BME280;32999;52.412;4.890;2023-03-18T19:37:26;100951.34;;;15.72;100.00
47260;BME280;32999;52.412;4.890;2023-03-18T19:42:29;100950.34;;;15.98;100.00
47260;BME280;32999;52.412;4.890;2023-03-18T19:47:34;100947.09;;;16.14;100.00
47260;BME280;32999;52.412;4.890;2023-03-18T19:52:36;100949.47;;;16.04;100.00
47260;BME280;32999;52.412;4.890;2023-03-18T19:57:37;100986.63;;;15.64;100.00
47260;BME280;32999;52.412;4.890;2023-03-18T20:02:40;100997.50;;;14.14;100.00
47260;BME280;32999;52.412;4.890;2023-03-18T20:07:42;100998.47;;;13.73;100.00
47260;BME280;32999;52.412;4.890;2023-03-18T20:12:45;101015.78;;;13.10;100.00
47260;BME280;32999;52.412;4.890;2023-03-18T20:17:49;101009.22;;;12.84;100.00
47260;BME280;32999;52.412;4.890;2023-03-18T20:22:51;101015.97;;;13.08;100.00
47260;BME280;32999;52.412;4.890;2023-03-18T20:27:53;101009.44;;;12.89;100.00
47260;BME280;32999;52.412;4.890;2023-03-18T20:32:58;101007.13;;;12.52;100.00
47260;BME280;32999;52.412;4.890;2023-03-18T20:38:03;101023.22;;;12.52;100.00
47260;BME280;32999;52.412;4.890;2023-03-18T20:43:07;101017.31;;;12.63;100.00
47260;BME280;32999;52.412;4.890;2023-03-18T20:48:11;101016.59;;;12.48;100.00
47260;BME280;32999;52.412;4.890;2023-03-18T20:53:14;101025.63;;;12.19;100.00
47260;BME280;32999;52.412;4.890;2023-03-18T20:58:17;101030.66;;;12.29;100.00
47260;BME280;32999;52.412;4.890;2023-03-18T21:03:21;101041.00;;;12.10;100.00
47260;BME280;32999;52.412;4.890;2023-03-18T21:08:23;101042.97;;;12.23;100.00
47260;BME280;32999;52.412;4.890;2023-03-18T21:13:26;101051.75;;;12.38;100.00
47260;BME280;32999;52.412;4.890;2023-03-18T21:18:29;101047.63;;;12.14;100.00
47260;BME280;32999;52.412;4.890;2023-03-18T21:23:32;101061.91;;;12.21;100.00
47260;BME280;32999;52.412;4.890;2023-03-18T21:28:35;101054.22;;;12.33;100.00
47260;BME280;32999;52.412;4.890;2023-03-18T21:33:38;101057.56;;;12.42;100.00
47260;BME280;32999;52.412;4.890;2023-03-18T21:38:41;101058.16;;;12.65;100.00
47260;BME280;32999;52.412;4.890;2023-03-18T21:43:43;101045.69;;;12.51;100.00
47260;BME280;32999;52.412;4.890;2023-03-18T21:48:46;101047.22;;;12.39;100.00
47260;BME280;32999;52.412;4.890;2023-03-18T21:53:47;101021.84;;;12.13;100.00
47260;BME280;32999;52.412;4.890;2023-03-18T21:58:49;101045.06;;;12.49;100.00
47260;BME280;32999;52.412;4.890;2023-03-18T22:03:52;101046.81;;;12.35;100.00
47260;BME280;32999;52.412;4.890;2023-03-18T22:08:53;101041.47;;;12.42;100.00
47260;BME280;32999;52.412;4.890;2023-03-18T22:13:56;101032.78;;;12.33;100.00
47260;BME280;32999;52.412;4.890;2023-03-18T22:18:59;101037.41;;;12.24;100.00
47260;BME280;32999;52.412;4.890;2023-03-18T22:24:00;101030.94;;;12.12;100.00
47260;BME280;32999;52.412;4.890;2023-03-18T22:29:02;101032.78;;;12.12;100.00
47260;BME280;32999;52.412;4.890;2023-03-18T22:34:07;101040.09;;;12.24;100.00
47260;BME280;32999;52.412;4.890;2023-03-18T22:39:11;101036.88;;;12.08;100.00
47260;BME280;32999;52.412;4.890;2023-03-18T22:44:13;101037.09;;;12.13;100.00
47260;BME280;32999;52.412;4.890;2023-03-18T22:49:21;101040.97;;;11.89;100.00
47260;BME280;32999;52.412;4.890;2023-03-18T22:54:22;101042.03;;;12.09;100.00
47260;BME280;32999;52.412;4.890;2023-03-18T22:59:25;101049.28;;;12.15;100.00
47260;BME280;32999;52.412;4.890;2023-03-18T23:04:28;101016.63;;;12.05;100.00
47260;BME280;32999;52.412;4.890;2023-03-18T23:09:30;101048.41;;;12.30;100.00
47260;BME280;32999;52.412;4.890;2023-03-18T23:14:32;101045.28;;;12.26;100.00
47260;BME280;32999;52.412;4.890;2023-03-18T23:19:35;101033.91;;;12.24;100.00
47260;BME280;32999;52.412;4.890;2023-03-18T23:24:36;101045.59;;;12.16;100.00
47260;BME280;32999;52.412;4.890;2023-03-18T23:29:38;101040.88;;;12.18;100.00
47260;BME280;32999;52.412;4.890;2023-03-18T23:34:41;101030.94;;;12.12;100.00
47260;BME280;32999;52.412;4.890;2023-03-18T23:39:43;101029.94;;;11.77;100.00
47260;BME280;32999;52.412;4.890;2023-03-18T23:44:45;101031.03;;;11.68;100.00
47260;BME280;32999;52.412;4.890;2023-03-18T23:49:48;101037.31;;;11.75;100.00
47260;BME280;32999;52.412;4.890;2023-03-18T23:54:50;101043.53;;;11.97;100.00
47260;BME280;32999;52.412;4.890;2023-03-18T23:59:51;101045.44;;;11.82;100.00
